Meteo Giornale » Osservazioni meteo Italia » Roma-Ciampino

ore: 20:50 - Osservazioni Meteo Roma-Ciampino
Lat. 41° 47' N Lon. 12° 35' E Alt. 129 metri s.l.m.

sereno Europe/Rome

5 °C

Sereno

Temp. 24 Ore

-1 °C

12 °C

Nord

5.5 Km/h

Dew point -1 °C

Umidità 65 %

Visibilità  10 Km

Il sole sorge alle ore 07:31

Il sole tramonta alle ore 17:09

Data e Ora Cielo e Fenomeni T °C DP °C Um. % Pres. hPa Vis. km Vento km/h
Oggi h: 20:50 sereno Sereno 5 -1 65 1025 10 N 5.5
Oggi h: 20:20 sereno Sereno 4 -1 69 1024 10 SE 7.4
Oggi h: 19:50 sereno Sereno 5 -1 65 1024 10 N 5.5
Oggi h: 19:20 sereno Sereno 5 -1 65 1024 10 S/SE 9.3
Oggi h: 18:50 sereno Sereno 6 -1 60 1024 10 S/SE 7.4
Oggi h: 18:20 sereno Sereno 6 -1 60 1024 10 N 3.7
Oggi h: 17:50 sereno Sereno 7 -2 52 1023 10 O 7.4
Oggi h: 17:20 sereno Sereno 9 -2 45 1023 10 N 1.8
Oggi h: 16:50 sereno Sereno 12 -3 34 1023 10 N 1.8
Oggi h: 16:20 sereno Sereno 10 -3 39 1022 10 N 5.5
Oggi h: 15:50 sereno Sereno 11 -3 37 1022 10 N/NE 7.4
Oggi h: 15:20 sereno Sereno 11 -2 40 1022 10 N/NE 7.4
Oggi h: 14:50 sereno Sereno 10 -2 42 1022 10 N/NE 11.1
Oggi h: 14:20 sereno Sereno 11 -2 40 1022 10 N 13
Oggi h: 13:50 sereno Sereno 10 -2 42 1022 10 N/NE 13
Oggi h: 13:20 sereno Sereno 10 -1 46 1022 10 N 14.8
Oggi h: 12:50 sereno Sereno 10 -0 49 1022 10 N 11.1
Oggi h: 12:20 sereno Sereno 10 -2 42 1022 10 N 11.1
Oggi h: 11:50 sereno Sereno 8 -1 52 1022 10 N 9.3
Oggi h: 11:20 sereno Sereno 8 1 61 1022 10 N/NE 13
Oggi h: 10:50 sereno Sereno 6 -0 65 1022 10 N/NE 13
Oggi h: 10:20 sereno Sereno 5 -1 65 1022 10 N/NE 14.8
Oggi h: 09:50 sereno Sereno 5 -1 65 1022 10 NE 13
Oggi h: 09:20 sereno Sereno 5 -2 60 1021 10 E 16.7
Oggi h: 08:50 sereno Sereno 2 -2 74 1021 10 E/NE 9.3
Oggi h: 08:20 sereno Sereno 1 -2 80 1021 10 E 7.4
Oggi h: 07:50 sereno Sereno 1 -2 80 1020 10 E 11.1
Oggi h: 07:20 sereno Sereno -0 -2 86 1020 10 E/NE 11.1
Oggi h: 06:50 sereno Sereno -0 -2 86 1020 10 E/NE 11.1
Oggi h: 06:20 sereno Sereno -1 -3 86 1019 10 NE 9.3
Oggi h: 05:50 sereno Sereno -1 -3 86 1019 10 N/NE 11.1
Oggi h: 05:20 sereno Sereno 0 -2 86 1018 10 E 13
Oggi h: 04:50 sereno Sereno -0 -2 86 1018 10 E/NE 13
Oggi h: 04:20 sereno Sereno -0 -2 86 1018 10 E/NE 14.8
Oggi h: 03:50 sereno Sereno -1 -2 92 1017 10 NE 9.3
Oggi h: 03:20 sereno Sereno -0 -2 86 1017 10 E/NE 7.4
Oggi h: 02:50 sereno Sereno 0 -2 86 1017 10 NE 13
Oggi h: 02:20 sereno Sereno -0 -1 92 1016 10 E/NE 9.3
Oggi h: 01:50 sereno Sereno -0 -1 92 1016 10 NE 11.1
Oggi h: 01:20 sereno Sereno -0 -1 92 1016 9 E/NE 11.1
Oggi h: 00:50 sereno Sereno 0 -1 92 1015 9 NE 14.8
Oggi h: 00:20 nuvoloso Nuvoloso 0 -1 92 1015 10 E/NE 13
Ieri h: 23:50 molto_nuvoloso Molto Nuvoloso 1 -1 86 1014 10 NE 14.8
Ieri h: 23:20 molto_nuvoloso Molto Nuvoloso 1 -1 86 1014 10 NE 9.3
Ieri h: 22:50 sereno Sereno 1 -1 86 1014 10 E/NE 11.1
Ieri h: 22:20 sereno Sereno 1 -0 93 1014 10 N/NE 11.1
Ieri h: 21:50 sereno Sereno 2 -1 80 1013 10 NE 7.4
Ieri h: 21:20 sereno Sereno 2 -1 80 1013 10 NE 9.3
Ieri h: 20:50 sereno Sereno 3 -0 80 1013 10 NE 11.1